createdAt,value
2022-11-12T00:01:58.495Z,13.22
2022-11-12T00:04:45.478Z,13.24
2022-11-12T00:07:31.772Z,13.33
2022-11-12T00:10:18.763Z,13.30
2022-11-12T00:13:05.389Z,13.27
2022-11-12T00:15:53.594Z,13.34
2022-11-12T00:18:39.831Z,13.22
2022-11-12T00:21:26.209Z,13.34
2022-11-12T00:24:12.538Z,13.38
2022-11-12T00:26:59.062Z,13.31
2022-11-12T00:29:45.556Z,13.14
2022-11-12T00:32:33.530Z,13.15
2022-11-12T00:35:20.159Z,13.07
2022-11-12T00:38:06.609Z,13.01
2022-11-12T00:40:52.957Z,13.19
2022-11-12T00:43:39.451Z,13.25
2022-11-12T00:46:25.940Z,13.21
2022-11-12T00:49:13.677Z,13.22
2022-11-12T00:52:00.300Z,13.22
2022-11-12T00:54:46.840Z,13.15
2022-11-12T00:57:33.417Z,13.10
2022-11-12T01:00:20.764Z,13.12
2022-11-12T01:03:07.517Z,13.09
2022-11-12T01:05:55.226Z,13.02
2022-11-12T01:08:42.533Z,13.00
2022-11-12T01:11:30.984Z,13.03
2022-11-12T01:14:17.426Z,13.01
2022-11-12T01:17:03.664Z,12.96
2022-11-12T01:19:50.796Z,12.95
2022-11-12T01:22:38.931Z,12.95
2022-11-12T01:25:25.441Z,12.88
2022-11-12T01:28:11.746Z,12.82
2022-11-12T01:30:58.300Z,12.85
2022-11-12T01:33:45.996Z,12.85
2022-11-12T01:36:35.144Z,12.76
2022-11-12T01:39:23.219Z,12.75
2022-11-12T01:42:09.994Z,12.72
2022-11-12T01:44:56.604Z,12.74
2022-11-12T01:47:45.611Z,12.73
2022-11-12T01:50:35.053Z,12.66
2022-11-12T01:53:24.261Z,12.60
2022-11-12T01:56:13.084Z,12.61
2022-11-12T01:59:05.252Z,12.62
2022-11-12T02:01:51.859Z,12.45
2022-11-12T02:04:39.511Z,12.30
2022-11-12T02:07:26.891Z,12.28
2022-11-12T02:10:14.284Z,12.26
2022-11-12T02:13:20.457Z,12.25
2022-11-12T02:16:10.061Z,12.21
2022-11-12T02:18:56.590Z,12.30
2022-11-12T02:21:45.487Z,12.22
2022-11-12T02:24:37.939Z,12.16
2022-11-12T02:27:25.170Z,12.16
2022-11-12T02:30:12.528Z,12.29
2022-11-12T02:32:59.761Z,12.33
2022-11-12T02:35:46.562Z,12.38
2022-11-12T02:38:34.704Z,12.43
2022-11-12T02:41:21.270Z,12.38
2022-11-12T02:44:07.963Z,12.34
2022-11-12T02:46:54.328Z,12.37
2022-11-12T02:49:40.767Z,12.38
2022-11-12T02:52:27.713Z,12.45
2022-11-12T02:55:15.484Z,12.43
2022-11-12T02:58:02.232Z,12.35
2022-11-12T03:00:49.357Z,12.40
2022-11-12T03:03:35.896Z,12.37
2022-11-12T03:06:22.336Z,12.35
2022-11-12T03:09:08.753Z,12.32
2022-11-12T03:11:56.353Z,12.31
2022-11-12T03:14:43.032Z,12.28
2022-11-12T03:17:29.760Z,12.17
2022-11-12T03:20:16.935Z,11.97
2022-11-12T03:23:07.550Z,12.00
2022-11-12T03:25:54.233Z,11.76
2022-11-12T03:28:42.274Z,11.77
2022-11-12T03:31:28.826Z,11.78
2022-11-12T03:34:15.294Z,11.81
2022-11-12T03:37:03.089Z,11.79
2022-11-12T03:39:49.280Z,11.75
2022-11-12T03:42:35.523Z,11.67
2022-11-12T03:45:25.493Z,11.59
2022-11-12T03:48:11.952Z,11.42
2022-11-12T03:50:59.312Z,11.26
2022-11-12T03:53:46.052Z,11.16
2022-11-12T03:56:32.467Z,11.12
2022-11-12T03:59:18.864Z,11.24
2022-11-12T04:02:06.609Z,11.20
2022-11-12T04:05:11.497Z,11.17
2022-11-12T04:08:17.475Z,11.15
2022-11-12T04:11:06.600Z,11.10
2022-11-12T04:13:53.244Z,11.05
2022-11-12T04:16:56.679Z,11.02
2022-11-12T04:20:02.252Z,10.93
2022-11-12T04:22:48.836Z,10.86
2022-11-12T04:25:52.461Z,10.80
2022-11-12T04:28:39.230Z,10.74
2022-11-12T04:31:24.421Z,10.73
2022-11-12T04:34:28.715Z,10.55
2022-11-12T04:37:21.023Z,10.40
2022-11-12T04:40:25.353Z,10.35
2022-11-12T04:43:32.234Z,10.25
2022-11-12T04:46:18.900Z,10.24
2022-11-12T04:49:05.320Z,10.27
2022-11-12T04:52:14.829Z,10.25
2022-11-12T04:55:03.054Z,10.25
2022-11-12T04:57:49.382Z,10.24
2022-11-12T05:00:35.813Z,10.34
2022-11-12T05:03:22.210Z,10.25
2022-11-12T05:06:30.044Z,10.37
2022-11-12T05:09:16.619Z,10.20
2022-11-12T05:12:05.170Z,10.37
2022-11-12T05:14:51.966Z,10.37
2022-11-12T05:17:42.762Z,10.37
2022-11-12T05:20:29.425Z,10.30
2022-11-12T05:23:14.777Z,10.33
2022-11-12T05:26:01.149Z,10.35
2022-11-12T05:28:49.070Z,10.35
2022-11-12T05:31:36.345Z,10.30
2022-11-12T05:34:23.226Z,10.26
2022-11-12T05:37:11.147Z,10.23
2022-11-12T05:39:57.698Z,10.25
2022-11-12T05:42:44.048Z,10.26
2022-11-12T05:45:31.857Z,10.29
2022-11-12T05:48:23.996Z,10.33
2022-11-12T05:51:14.187Z,10.34
2022-11-12T05:54:01.181Z,10.33
2022-11-12T05:56:48.187Z,10.29
2022-11-12T05:59:34.626Z,10.28
2022-11-12T06:02:22.746Z,10.11
2022-11-12T06:05:10.106Z,10.03
2022-11-12T06:07:56.712Z,9.99
2022-11-12T06:10:43.293Z,9.96
2022-11-12T06:13:30.039Z,9.92
2022-11-12T06:16:16.618Z,9.99
2022-11-12T06:19:04.974Z,9.86
2022-11-12T06:21:51.366Z,9.77
2022-11-12T06:24:38.140Z,9.71
2022-11-12T06:27:24.697Z,9.62
2022-11-12T06:30:12.193Z,9.46
2022-11-12T06:32:58.709Z,9.60
2022-11-12T06:35:46.472Z,9.57
2022-11-12T06:38:34.109Z,9.42
2022-11-12T06:41:20.549Z,9.47
2022-11-12T06:44:07.401Z,9.47
2022-11-12T06:46:53.867Z,9.47
2022-11-12T06:49:40.368Z,9.47
2022-11-12T06:52:28.588Z,9.46
2022-11-12T06:55:15.395Z,9.54
2022-11-12T06:58:04.743Z,9.60
2022-11-12T07:00:51.352Z,9.66
2022-11-12T07:03:37.825Z,9.56
2022-11-12T07:06:24.657Z,9.68
2022-11-12T07:09:13.001Z,9.75
2022-11-12T07:11:59.464Z,9.93
2022-11-12T07:14:46.683Z,10.03
2022-11-12T07:17:33.300Z,9.92
2022-11-12T07:20:19.615Z,10.06
2022-11-12T07:23:06.246Z,10.09
2022-11-12T07:25:58.938Z,10.11
2022-11-12T07:28:46.219Z,10.13
2022-11-12T07:31:32.652Z,10.16
2022-11-12T07:34:18.954Z,10.22
2022-11-12T07:37:05.367Z,10.15
2022-11-12T07:39:51.834Z,10.08
2022-11-12T07:42:39.526Z,10.29
2022-11-12T07:45:26.353Z,10.35
2022-11-12T07:48:12.994Z,10.37
2022-11-12T07:51:03.563Z,10.25
2022-11-12T07:53:56.237Z,10.35
2022-11-12T07:56:45.413Z,10.34
2022-11-12T07:59:33.216Z,10.37
2022-11-12T08:02:19.897Z,10.43
2022-11-12T08:05:13.592Z,10.66
2022-11-12T08:08:03.086Z,10.75
2022-11-12T08:10:49.648Z,10.64
2022-11-12T08:13:36.076Z,10.72
2022-11-12T08:16:24.856Z,10.81
2022-11-12T08:19:14.312Z,10.90
2022-11-12T08:22:01.462Z,10.94
2022-11-12T08:24:47.789Z,10.99
2022-11-12T08:27:34.240Z,11.37
2022-11-12T08:30:20.776Z,11.92
2022-11-12T08:33:08.822Z,12.65
2022-11-12T08:35:55.732Z,13.31
2022-11-12T08:38:42.230Z,13.70
2022-11-12T08:41:28.985Z,13.90
2022-11-12T08:44:15.539Z,14.50
2022-11-12T08:47:02.397Z,14.94
2022-11-12T08:49:50.230Z,15.29
2022-11-12T08:52:36.979Z,15.59
2022-11-12T08:55:23.288Z,15.84
2022-11-12T08:58:10.973Z,16.17
2022-11-12T09:00:58.184Z,16.44
2022-11-12T09:03:44.636Z,16.76
2022-11-12T09:06:32.432Z,17.03
2022-11-12T09:09:19.065Z,17.20
2022-11-12T09:12:13.685Z,17.64
2022-11-12T09:15:35.573Z,17.94
2022-11-12T09:18:13.352Z,18.30
2022-11-12T09:21:04.797Z,18.48
2022-11-12T09:23:52.693Z,18.68
2022-11-12T09:26:39.074Z,18.86
2022-11-12T09:29:25.686Z,18.79
2022-11-12T09:32:12.079Z,18.93
2022-11-12T09:34:58.325Z,19.00
2022-11-12T09:37:44.836Z,18.96
2022-11-12T09:40:45.523Z,19.15
2022-11-12T09:43:35.300Z,19.28
2022-11-12T09:46:37.678Z,19.48
2022-11-12T09:49:26.576Z,19.60
2022-11-12T09:52:17.898Z,19.75
2022-11-12T09:55:11.037Z,19.84
2022-11-12T09:57:59.439Z,20.01
2022-11-12T10:00:55.609Z,20.31
2022-11-12T10:03:52.672Z,20.58
2022-11-12T10:06:48.215Z,20.91
2022-11-12T10:09:45.536Z,21.23
2022-11-12T10:12:43.806Z,21.70
2022-11-12T10:16:08.873Z,21.99
2022-11-12T10:19:17.388Z,21.96
2022-11-12T10:22:22.825Z,22.23
2022-11-12T10:25:15.924Z,22.63
2022-11-12T10:28:09.263Z,23.13
2022-11-12T10:31:01.927Z,23.52
2022-11-12T10:33:48.885Z,23.64
2022-11-12T10:36:37.990Z,23.55
2022-11-12T10:39:36.096Z,23.57
2022-11-12T10:42:24.016Z,23.46
2022-11-12T10:45:22.133Z,23.02
2022-11-12T10:48:27.020Z,22.23
2022-11-12T10:51:22.076Z,22.47
2022-11-12T10:54:28.914Z,22.10
2022-11-12T10:57:23.961Z,21.58
2022-11-12T11:00:19.008Z,21.31
2022-11-12T11:03:16.595Z,20.96
2022-11-12T11:06:06.245Z,20.69
2022-11-12T11:08:54.491Z,20.47
2022-11-12T11:11:50.145Z,20.21
2022-11-12T11:14:38.359Z,19.82
2022-11-12T11:17:25.101Z,19.44
2022-11-12T11:20:19.469Z,18.96
2022-11-12T11:23:15.896Z,18.81
2022-11-12T11:26:14.391Z,18.72
2022-11-12T11:29:21.937Z,18.52
2022-11-12T11:32:18.753Z,18.28
2022-11-12T11:35:19.308Z,18.21
2022-11-12T11:38:22.260Z,18.02
2022-11-12T11:41:22.628Z,17.65
2022-11-12T11:44:22.114Z,17.33
2022-11-12T11:47:23.515Z,17.32
2022-11-12T11:50:23.400Z,17.41
2022-11-12T11:53:22.385Z,17.35
2022-11-12T11:56:17.299Z,17.41
2022-11-12T11:59:23.936Z,17.43
2022-11-12T12:02:33.028Z,17.46
2022-11-12T12:05:33.936Z,17.56
2022-11-12T12:08:30.947Z,17.75
2022-11-12T12:11:23.781Z,17.87
2022-11-12T12:14:32.235Z,17.72
2022-11-12T12:17:31.926Z,17.95
2022-11-12T12:20:26.708Z,18.22
2022-11-12T12:23:25.516Z,18.41
2022-11-12T12:26:17.865Z,18.55
2022-11-12T12:29:09.420Z,18.84
2022-11-12T12:32:02.529Z,19.07
2022-11-12T12:34:54.252Z,19.24
2022-11-12T12:37:47.127Z,19.43
2022-11-12T12:40:36.706Z,19.54
2022-11-12T12:43:31.733Z,19.71
2022-11-12T12:46:23.901Z,19.96
2022-11-12T12:49:17.450Z,20.29
2022-11-12T12:52:04.099Z,20.30
2022-11-12T12:54:58.688Z,20.36
2022-11-12T12:57:45.480Z,20.85
2022-11-12T13:00:40.834Z,21.24
2022-11-12T13:04:02.358Z,21.84
2022-11-12T13:06:55.530Z,22.01
2022-11-12T13:09:42.421Z,21.83
2022-11-12T13:13:03.229Z,21.77
2022-11-12T13:15:53.772Z,21.90
2022-11-12T13:19:02.060Z,22.04
2022-11-12T13:21:48.757Z,22.11
2022-11-12T13:25:05.295Z,22.02
2022-11-12T13:28:12.866Z,21.17
2022-11-12T13:31:05.492Z,21.33
2022-11-12T13:33:52.028Z,21.88
2022-11-12T13:36:39.008Z,22.34
2022-11-12T13:39:26.363Z,22.68
2022-11-12T13:42:32.422Z,22.65
2022-11-12T13:45:21.451Z,22.28
2022-11-12T13:48:13.269Z,22.21
2022-11-12T13:51:03.546Z,22.60
2022-11-12T13:53:49.913Z,22.86
2022-11-12T13:56:37.568Z,23.02
2022-11-12T13:59:26.725Z,22.99
2022-11-12T14:02:22.197Z,23.13
2022-11-12T14:05:17.761Z,23.35
2022-11-12T14:08:32.013Z,23.55
2022-11-12T14:11:36.505Z,23.86
2022-11-12T14:14:35.321Z,23.57
2022-11-12T14:17:34.075Z,23.60
2022-11-12T14:20:26.766Z,23.42
2022-11-12T14:23:20.080Z,23.32
2022-11-12T14:26:12.616Z,23.41
2022-11-12T14:28:59.813Z,23.39
2022-11-12T14:31:46.677Z,23.34
2022-11-12T14:34:35.588Z,23.29
2022-11-12T14:37:41.690Z,23.40
2022-11-12T14:40:32.484Z,23.47
2022-11-12T14:43:33.816Z,23.29
2022-11-12T14:46:26.583Z,23.18
2022-11-12T14:49:23.906Z,23.08
2022-11-12T14:52:16.876Z,22.76
2022-11-12T14:55:13.626Z,22.26
2022-11-12T14:58:01.487Z,21.81
2022-11-12T15:05:08.549Z,20.63
2022-11-12T15:08:11.954Z,20.22
2022-11-12T15:11:32.409Z,19.83
2022-11-12T15:14:39.286Z,19.56
2022-11-12T15:17:58.665Z,19.28
2022-11-12T15:21:28.243Z,18.96
2022-11-12T15:25:03.935Z,18.74
2022-11-12T15:27:56.492Z,18.49
2022-11-12T15:31:08.028Z,18.25
2022-11-12T15:34:01.180Z,18.05
2022-11-12T15:36:58.936Z,17.89
2022-11-12T15:39:50.069Z,17.72
2022-11-12T15:42:45.051Z,17.52
2022-11-12T15:45:35.923Z,17.35
2022-11-12T15:48:31.694Z,17.13
2022-11-12T15:51:32.735Z,16.93
2022-11-12T15:54:26.030Z,16.75
2022-11-12T15:57:30.147Z,16.60
2022-11-12T16:00:20.573Z,16.48
2022-11-12T16:03:20.082Z,16.35
2022-11-12T16:06:13.630Z,16.21
2022-11-12T16:09:07.357Z,16.08
2022-11-12T16:12:17.511Z,15.95
2022-11-12T16:15:22.907Z,15.82
2022-11-12T16:18:17.841Z,15.68
2022-11-12T16:21:19.521Z,15.59
2022-11-12T16:24:12.561Z,15.52
2022-11-12T16:27:12.545Z,15.43
2022-11-12T16:30:12.243Z,15.32
2022-11-12T16:33:05.612Z,15.24
2022-11-12T16:35:58.207Z,15.15
2022-11-12T16:38:50.596Z,15.11
2022-11-12T16:41:46.110Z,15.04
2022-11-12T16:44:38.796Z,14.95
2022-11-12T16:47:45.637Z,14.88
2022-11-12T16:50:34.669Z,14.65
2022-11-12T16:53:34.309Z,14.67
2022-11-12T16:56:24.651Z,14.68
2022-11-12T16:59:35.226Z,14.63
2022-11-12T17:02:28.147Z,14.44
2022-11-12T17:05:32.909Z,14.34
2022-11-12T17:08:34.060Z,14.23
2022-11-12T17:11:56.970Z,14.12
2022-11-12T17:14:59.276Z,14.07
2022-11-12T17:17:48.065Z,14.18
2022-11-12T17:20:41.497Z,14.10
2022-11-12T17:23:38.034Z,14.12
2022-11-12T17:26:38.928Z,14.22
2022-11-12T17:29:28.958Z,14.05
2022-11-12T17:32:23.756Z,14.19
2022-11-12T17:35:14.303Z,14.24
2022-11-12T17:38:03.407Z,14.24
2022-11-12T17:41:05.894Z,14.20
2022-11-12T17:44:01.562Z,14.13
2022-11-12T17:46:51.135Z,14.12
2022-11-12T17:49:40.454Z,14.09
2022-11-12T17:52:44.619Z,14.07
2022-11-12T17:55:41.618Z,14.06
2022-11-12T17:58:37.543Z,14.06
2022-11-12T18:02:01.606Z,14.03
2022-11-12T18:04:56.933Z,13.97
2022-11-12T18:07:49.633Z,13.92
2022-11-12T18:10:47.801Z,13.89
2022-11-12T18:13:42.349Z,13.85
2022-11-12T18:16:52.248Z,13.83
2022-11-12T18:19:46.843Z,13.83
2022-11-12T18:22:45.042Z,13.81
2022-11-12T18:25:40.837Z,13.78
2022-11-12T18:28:32.054Z,13.79
2022-11-12T18:31:26.586Z,13.81
2022-11-12T18:34:22.976Z,13.81
2022-11-12T18:37:12.653Z,13.80
2022-11-12T18:40:01.050Z,13.78
2022-11-12T18:42:55.200Z,13.74
2022-11-12T18:45:49.781Z,13.69
2022-11-12T18:48:46.770Z,13.66
2022-11-12T18:51:43.022Z,13.63
2022-11-12T18:54:33.035Z,13.63
2022-11-12T18:57:26.551Z,13.63
2022-11-12T19:00:37.581Z,13.59
2022-11-12T19:03:31.553Z,13.39
2022-11-12T19:06:22.166Z,13.48
2022-11-12T19:09:28.676Z,13.48
2022-11-12T19:12:20.828Z,13.49
2022-11-12T19:15:13.356Z,13.52
2022-11-12T19:18:05.131Z,13.52
2022-11-12T19:21:07.249Z,13.51
2022-11-12T19:23:59.590Z,13.53
2022-11-12T19:26:59.439Z,13.52
2022-11-12T19:29:50.155Z,13.50
2022-11-12T19:32:40.445Z,13.49
2022-11-12T19:35:30.065Z,13.48
2022-11-12T19:38:25.402Z,13.33
2022-11-12T19:41:19.370Z,13.37
2022-11-12T19:44:10.468Z,13.34
2022-11-12T19:47:02.136Z,13.36
2022-11-12T19:49:59.295Z,13.34
2022-11-12T19:52:50.714Z,13.31
2022-11-12T19:55:40.986Z,13.30
2022-11-12T19:58:40.152Z,13.25
2022-11-12T20:01:42.099Z,13.23
2022-11-12T20:04:31.132Z,13.21
2022-11-12T20:07:20.148Z,13.14
2022-11-12T20:10:09.256Z,13.10
2022-11-12T20:13:04.610Z,13.05
2022-11-12T20:15:56.749Z,13.01
2022-11-12T20:18:51.138Z,12.94
2022-11-12T20:21:42.286Z,12.87
2022-11-12T20:24:34.072Z,12.81
2022-11-12T20:27:24.910Z,12.77
2022-11-12T20:30:17.320Z,12.67
2022-11-12T20:33:07.658Z,12.63
2022-11-12T20:36:10.924Z,12.59
2022-11-12T20:39:02.730Z,12.53
2022-11-12T20:41:53.744Z,12.48
2022-11-12T20:44:47.767Z,12.47
2022-11-12T20:47:36.266Z,12.43
2022-11-12T20:50:28.502Z,12.41
2022-11-12T20:53:21.149Z,12.40
2022-11-12T20:56:14.513Z,12.40
2022-11-12T20:59:08.797Z,12.35
2022-11-12T21:02:07.538Z,12.35
2022-11-12T21:04:56.550Z,12.35
2022-11-12T21:07:49.894Z,12.33
2022-11-12T21:10:42.461Z,12.31
2022-11-12T21:13:38.795Z,12.30
2022-11-12T21:16:27.798Z,12.28
2022-11-12T21:19:18.295Z,12.27
2022-11-12T21:22:10.310Z,12.25
2022-11-12T21:24:59.082Z,12.20
2022-11-12T21:27:53.519Z,12.19
2022-11-12T21:30:53.282Z,12.15
2022-11-12T21:33:44.598Z,12.12
2022-11-12T21:36:41.600Z,12.11
2022-11-12T21:39:30.301Z,12.08
2022-11-12T21:42:19.160Z,12.03
2022-11-12T21:45:16.310Z,11.99
2022-11-12T21:48:04.965Z,11.98
2022-11-12T21:51:29.765Z,11.93
2022-11-12T21:54:43.944Z,11.87
2022-11-12T21:57:42.614Z,11.85
2022-11-12T22:00:41.879Z,11.82
2022-11-12T22:03:33.792Z,11.82
2022-11-12T22:06:23.560Z,11.76
2022-11-12T22:09:21.942Z,11.76
2022-11-12T22:12:12.411Z,11.74
2022-11-12T22:15:02.268Z,11.72
2022-11-12T22:17:52.408Z,11.67
2022-11-12T22:20:45.162Z,11.69
2022-11-12T22:23:41.077Z,11.67
2022-11-12T22:26:39.150Z,11.61
2022-11-12T22:29:31.287Z,11.59
2022-11-12T22:32:20.041Z,11.58
2022-11-12T22:35:15.411Z,11.57
2022-11-12T22:38:05.681Z,11.55
2022-11-12T22:40:52.214Z,11.55
2022-11-12T22:43:39.026Z,11.52
2022-11-12T22:46:27.734Z,11.47
2022-11-12T22:49:14.256Z,11.41
2022-11-12T22:52:02.173Z,11.39
2022-11-12T22:54:48.840Z,11.36
2022-11-12T22:57:35.342Z,11.36
2022-11-12T23:00:30.222Z,11.32
2022-11-12T23:03:16.842Z,11.30
2022-11-12T23:06:06.472Z,11.28
2022-11-12T23:08:56.258Z,11.15
2022-11-12T23:11:42.692Z,11.12
2022-11-12T23:14:29.083Z,11.13
2022-11-12T23:17:15.502Z,11.15
2022-11-12T23:20:01.994Z,11.16
2022-11-12T23:22:48.369Z,11.17
2022-11-12T23:25:36.212Z,11.08
2022-11-12T23:28:22.677Z,11.09
2022-11-12T23:31:13.358Z,11.12
2022-11-12T23:34:02.090Z,11.14
2022-11-12T23:36:48.600Z,11.08
2022-11-12T23:39:35.149Z,11.13
2022-11-12T23:42:23.497Z,11.18
2022-11-12T23:45:11.412Z,11.19
2022-11-12T23:48:00.110Z,11.24
2022-11-12T23:50:48.662Z,11.22
2022-11-12T23:53:36.161Z,11.17
2022-11-12T23:56:22.808Z,11.15
2022-11-12T23:59:10.888Z,11.22
